AirNav   Jet Aviation Boston
 
 1135 users online  

2N7 Little Ferry Seaplane Base
Little Ferry, New Jersey, USA

GOING TO LITTLE FERRY?


FAA INFORMATION EFFECTIVE 19 JULY 2018

Location

FAA Identifier: 2N7
Lat/Long: 40-51-00.3590N / 074-01-58.5040W
40-51.005983N / 074-01.975067W
40.8500997 / -74.0329178
(estimated)
Elevation: 0 ft. / 0 m (estimated)
Variation: 13W (1985)
From city: 1 mile E of LITTLE FERRY, NJ
Time zone: UTC -4 (UTC -5 during Standard Time)
Zip code: 07643

Seaplane Base Operations

Seaplane Base use: Open to the public
Activation date: 08/1947
Control tower: no
ARTCC: NEW YORK CENTER
FSS: MILLVILLE FLIGHT SERVICE STATION
NOTAMs facility: MIV (NOTAM-D service available)
Attendance: UNATNDD
Pattern altitude: 500 ft. MSL
Wind indicator: no
Segmented circle: no

Seaplane Base Communications

CTAF/UNICOM: 122.8
WX ASOS at TEB (1.3 nm W): 132.025 (201-393-0855)
WX ASOS at LGA (8 nm SE): PHONE 718-672-6317
WX AWOS-3PT at JRB (9 nm S): 128.175 (212-425-1534)
WX ASOS at EWR (11 nm SW): PHONE 973-621-2892
WX ASOS at CDW (11 nm W): 135.5 (973-575-4417)
WX AWOS-3 at LDJ (17 nm SW): 124.025 (908-862-7383)
WX ASOS at JFK (17 nm SE): PHONE 718-656-0956
WX AWOS-3 at MMU (18 nm W): PHONE 973-290-0135
WX ASOS at HPN (20 nm NE): PHONE 914-288-0216

Nearby radio navigation aids

VOR radial/distance  VOR name  Freq  Var
TEBr097/1.3TETERBORO VOR/DME108.4011W
LGAr310/8.5LA GUARDIA VOR/DME113.1012W
CRIr347/15.6CANARSIE VOR/DME112.3011W
JFKr330/17.6KENNEDY VOR/DME115.9012W
SAXr131/26.4SPARTA VORTAC115.7011W
COLr021/32.8COLTS NECK VOR/DME115.4011W
CMKr230/32.9CARMEL VOR/DME116.6012W
DPKr288/33.3DEER PARK VOR/DME117.7012W
BWZr096/36.0BROADWAY VOR/DME114.2011W
SBJr074/36.0SOLBERG VOR/DME112.9010W
STWr114/38.9STILLWATER VOR/DME109.6011W

 
NDB name  Hdg/Dist  Freq  Var  ID
TORBY071/5.321412WTE - .
BRIDGE350/18.241412WOGY --- --. -.--
CHATHAM083/19.225413WCAT -.-. .- -
BABYLON304/31.327514WBBN -... -... -.

Seaplane Base Services

Airframe service: NONE
Powerplant service: NONE
Bottled oxygen: NONE
Bulk oxygen: NONE

Runway Information

Runway 1W/19W

Dimensions: 5500 x 150 ft. / 1676 x 46 m
Surface: water
RUNWAY 1W  RUNWAY 19W
Traffic pattern: leftright
Obstructions: 50 ft. tower, lighted, 1000 ft. from runway, 200 ft. left of centerline, 20:1 slope to clear85 ft. brdg, 1500 ft. from runway, 17:1 slope to clear

Seaplane Base Ownership and Management from official FAA records

Ownership: Privately-owned
Owner: ANASTASIOS G. GEORGAS
ONE HORIZON ROAD, UNIT #1424
FORT LEE, NJ 07824
Phone (201) 224-6179
Manager: ANASTASIOS G. GEORGAS
ONE HORIZON ROAD, UNIT #1424
FORT LEE, NJ 07824
Phone (201) 224-6179

Additional Remarks

DAYLIGHT USE ONLY.
LDG AREA USBL; HOWEVER FAC IS IN DISREPAIR AND UNUSBL.

Instrument Procedures

There are no published instrument procedures at 2N7.

Some nearby airports with instrument procedures:

KTEB - Teterboro Airport (1 nm W)
KJRA - West 30th St Heliport (6 nm S)
6N5 - East 34th Street Heliport (7 nm SE)
KLGA - LaGuardia Airport (8 nm SE)
KJRB - Downtown Manhattan/Wall Street Heliport (9 nm S)
KEWR - Newark Liberty International Airport (11 nm SW)
KCDW - Essex County Airport (11 nm W)
N07 - Lincoln Park Airport (14 nm NW)
KLDJ - Linden Airport (17 nm SW)
KJFK - John F Kennedy International Airport (17 nm SE)
 
Loc | Ops | Rwys | IFR | FBO | Links
Com | Nav | Svcs | Stats | Notes


 
Area around 2N7 (Little Ferry Seaplane Base)
 
Road maps at: MapQuest Bing Google
 
Aerial photo
WARNING: Photo may not be current or correct
Aerial photo of 2N7 (Little Ferry Seaplane Base)
Do you have a better or more recent aerial photo of Little Ferry Seaplane Base that you would like to share? If so, please send us your photo.

 
Sectional chart

 
Airport distance calculator
Flying to Little Ferry Seaplane Base? Find the distance to fly.

From to 2N7

Sunrise and sunset
Times for 21-Jul-2018
 Local
(UTC-4)
 Zulu
(UTC)
Morning civil twilight05:1109:11
Sunrise05:4309:43
Sunset20:2200:22
Evening civil twilight20:5400:54

Current date and time
Zulu (UTC)  21-Jul-2018 19:18:19
Local (UTC-4)  21-Jul-2018 15:18:19
 
METAR
KTEB 211851Z 08013G20KT 10SM CLR 24/15 A3003 RMK AO2 SLP167 T02440150
KNYC 
5nm SE 
211851Z AUTO VRB06KT 10SM FEW044 23/16 A3007 RMK AO2 SLP172 T02330156 $
KLGA 
8nm SE 
211851Z 05016KT 10SM FEW043 SCT150 BKN260 24/17 A3003 RMK AO2 SLP170 T02390167
KJRB 
9nm S 
211856Z AUTO RMK AO2 SLPNO PWINO FZRANO $
KCDW 
12nm W 
211853Z 11008G18KT 10SM FEW045 FEW110 24/14 A3004 RMK AO2 SLP176 T02440144
KEWR 
12nm SW 
211851Z 11011G19KT 10SM SCT027 BKN120 BKN180 OVC250 25/14 A3003 RMK AO2 SLP167 T02500144
KLDJ 
17nm SW 
211855Z AUTO 14011G18KT 10SM BKN100 BKN120 23/14 A3004 RMK AO2 T02310139
KJFK 
18nm SE 
211851Z 10018KT 10SM SCT035 SCT150 OVC250 23/16 A3005 RMK AO2 PK WND 09028/1836 SLP175 T02330161
KMMU 
18nm W 
211855Z 12009KT 10SM SCT046 BKN120 24/16 A3003
KHPN 
20nm NE 
211856Z 08011G18KT 10SM FEW030 23/14 A3006 RMK AO2 SLP176 T02280144
TAF
KTEB 211722Z 2118/2224 09012G20KT P6SM SCT035 BKN250 TEMPO 2118/2122 BKN035 FM212200 08013G20KT P6SM VCSH SCT020 BKN035 TEMPO 2122/2201 3SM -SHRA BKN020 FM220100 07016G24KT 3SM SHRA BR OVC010 FM220300 06018G26KT 2SM +SHRA BR VCTS BKN004CB OVC007 WS020/13050KT FM220600 09020G32KT 2SM +SHRA BR BKN004 OVC007 WS020/13055KT FM221000 16011G16KT P6SM VCSH BKN010 FM221500 17010KT P6SM VCSH BKN025
KLGA 
8nm SE 
211722Z 2118/2224 06015G21KT P6SM SCT035 BKN250 TEMPO 2118/2122 BKN035 FM212200 06016G24KT P6SM VCSH SCT020 BKN035 TEMPO 2123/2201 3SM -SHRA BKN020 FM220100 07020G30KT 3SM SHRA BR OVC010 FM220300 08020G32KT 2SM +SHRA BR VCTS BKN004CB OVC007 WS020/13055KT FM220600 09020G32KT 2SM +SHRA BR BKN004 OVC007 WS020/13055KT FM221000 16015G25KT P6SM VCSH BKN010 FM221500 17012G20KT P6SM VCSH BKN025
KEWR 
12nm SW 
211722Z 2118/2224 10012G20KT P6SM SCT035 BKN250 TEMPO 2118/2122 BKN035 FM212200 08013G20KT P6SM VCSH SCT020 BKN035 TEMPO 2122/2201 3SM -SHRA BKN020 FM220100 07018G26KT 3SM SHRA BR OVC010 FM220300 06018G29KT 2SM +SHRA BR VCTS BKN004CB OVC007 WS020/13050KT FM220600 09020G32KT 2SM +SHRA BR BKN004 OVC007 WS020/13055KT FM221000 16011G16KT P6SM VCSH BKN010 FM221500 17010KT P6SM VCSH BKN025
KJFK 
18nm SE 
211722Z 2118/2224 09016G22KT P6SM SCT035 BKN250 TEMPO 2118/2122 BKN035 FM212200 08016G24KT P6SM VCSH SCT020 BKN035 TEMPO 2122/2201 3SM -SHRA BKN020 FM220100 07020G30KT 3SM SHRA BR OVC010 FM220300 09020G32KT 2SM +SHRA BR VCTS BKN004CB OVC007 WS020/13055KT FM220600 09020G32KT 2SM +SHRA BR BKN004 OVC007 WS020/13055KT FM221000 16015G25KT P6SM VCSH BKN010 FM221500 17012G20KT P6SM VCSH BKN025
KHPN 
20nm NE 
211722Z 2118/2218 10011G18KT P6SM SCT035 BKN250 TEMPO 2119/2123 BKN035 FM212300 08013G20KT P6SM VCSH SCT020 BKN035 TEMPO 2123/2202 3SM -SHRA BKN020 FM220200 07016G24KT 3SM SHRA BR OVC010 FM220400 06018G26KT 2SM +SHRA BR VCTS BKN004CB OVC007 WS020/13050KT FM220700 09020G32KT 2SM +SHRA BR BKN004 OVC007 WS020/13055KT FM221100 16009KT P6SM VCSH BKN009 FM221500 17009KT P6SM VCSH BKN020 AMD NOT SKED
NOTAMs
Click for the latest NOTAMs
NOTAMs are issued by the DoD/FAA and will open in a separate window not controlled by AirNav.

 

 
 

Would you like to see your business listed on this page?

 If your business provides an interesting product or service to pilots, flight crews, aircraft, or users of the Little Ferry Seaplane Base, you should consider listing it here.  To start the listing process, click on the button below
 
Add a business
 

Other Pages about Little Ferry Seaplane Base

Update a link
 
Copyright © AirNav, LLC. All rights reserved. Privacy Policy  Contact